AWQ284 WMKK-WBGG
Flight info
| Callsign | AWQ284 |
|---|---|
| Flight time | N/A |
| Altitude | 39000 |
| Route | KIMAT2D KIMAT Y344 VPK M761 ESBAL ESBAL1G |
| Aircraft | A20N/M-SDE2E3FGHIRWXY/LB1 |
Departure
| Time | N/A |
|---|---|
| Airport | Kuala Lumpur International Airport (WMKK) |
Arrival
| Time | 2026-04-29 16:03 |
|---|---|
| Airport | Kuching International Airport (WBGG) |
| Time | Latitude | Longitude | Altitude | Speed | Heading |
|---|---|---|---|---|---|
| 2026-04-29 14:47 | 3.22703 | 102.65731 | 28309 ft | 442 kts | 77° |
| 2026-04-29 14:48 | 3.23339 | 102.68745 | 28604 ft | 444 kts | 77° |
| 2026-04-29 14:48 | 3.23978 | 102.71774 | 28878 ft | 446 kts | 77° |
| 2026-04-29 14:48 | 3.24621 | 102.74820 | 29161 ft | 448 kts | 77° |
| 2026-04-29 14:48 | 3.25265 | 102.77873 | 29418 ft | 450 kts | 77° |
| 2026-04-29 14:49 | 3.25914 | 102.80949 | 29692 ft | 452 kts | 77° |
| 2026-04-29 14:49 | 3.26564 | 102.84034 | 29959 ft | 454 kts | 77° |
| 2026-04-29 14:49 | 3.27217 | 102.87128 | 30201 ft | 456 kts | 77° |
| 2026-04-29 14:49 | 3.27872 | 102.90236 | 30451 ft | 457 kts | 77° |
| 2026-04-29 14:50 | 3.28522 | 102.93317 | 30706 ft | 459 kts | 77° |
| 2026-04-29 14:50 | 3.29180 | 102.96438 | 30941 ft | 455 kts | 77° |
| 2026-04-29 14:50 | 3.29833 | 102.99536 | 30930 ft | 450 kts | 77° |
| 2026-04-29 14:51 | 3.31146 | 103.05766 | 31113 ft | 461 kts | 77° |
| 2026-04-29 14:51 | 3.31806 | 103.08900 | 31445 ft | 460 kts | 77° |
| 2026-04-29 14:51 | 3.32465 | 103.12028 | 31809 ft | 459 kts | 77° |
| 2026-04-29 14:51 | 3.33122 | 103.15146 | 32151 ft | 458 kts | 77° |
| 2026-04-29 14:52 | 3.33778 | 103.18261 | 32484 ft | 457 kts | 77° |
| 2026-04-29 14:52 | 3.34441 | 103.21371 | 32816 ft | 456 kts | 77° |
| 2026-04-29 14:52 | 3.35099 | 103.24467 | 33139 ft | 455 kts | 77° |
| 2026-04-29 14:52 | 3.35747 | 103.27565 | 33462 ft | 454 kts | 77° |
| 2026-04-29 14:53 | 3.36392 | 103.30656 | 33777 ft | 453 kts | 77° |
| 2026-04-29 14:53 | 3.37038 | 103.33741 | 34069 ft | 452 kts | 77° |
| 2026-04-29 14:53 | 3.37683 | 103.36819 | 34324 ft | 451 kts | 78° |
| 2026-04-29 14:53 | 3.38103 | 103.39931 | 34552 ft | 452 kts | 86° |
| 2026-04-29 14:54 | 3.38077 | 103.43071 | 34791 ft | 452 kts | 94° |
| 2026-04-29 14:54 | 3.37611 | 103.46179 | 35032 ft | 453 kts | 102° |
| 2026-04-29 14:54 | 3.36776 | 103.49218 | 35265 ft | 452 kts | 105° |
| 2026-04-29 14:54 | 3.35912 | 103.52244 | 35506 ft | 451 kts | 105° |
| 2026-04-29 14:55 | 3.35058 | 103.55264 | 35756 ft | 451 kts | 105° |
| 2026-04-29 14:55 | 3.34210 | 103.58275 | 36007 ft | 450 kts | 105° |
| 2026-04-29 14:55 | 3.33361 | 103.61288 | 36235 ft | 449 kts | 105° |
| 2026-04-29 14:55 | 3.32514 | 103.64288 | 36482 ft | 448 kts | 105° |
| 2026-04-29 14:56 | 3.31666 | 103.67288 | 36714 ft | 447 kts | 105° |
| 2026-04-29 14:56 | 3.30821 | 103.70277 | 36915 ft | 447 kts | 105° |
| 2026-04-29 14:56 | 3.29972 | 103.73275 | 37096 ft | 447 kts | 105° |
| 2026-04-29 14:56 | 3.29127 | 103.76260 | 37357 ft | 445 kts | 105° |
| 2026-04-29 14:57 | 3.28284 | 103.79244 | 37558 ft | 445 kts | 105° |
| 2026-04-29 14:57 | 3.27443 | 103.82216 | 37763 ft | 444 kts | 105° |
| 2026-04-29 14:57 | 3.26603 | 103.85187 | 37934 ft | 444 kts | 105° |
| 2026-04-29 14:57 | 3.25761 | 103.88161 | 38111 ft | 443 kts | 105° |
| 2026-04-29 14:58 | 3.24921 | 103.91129 | 38277 ft | 443 kts | 105° |
| 2026-04-29 14:58 | 3.24081 | 103.94096 | 38439 ft | 443 kts | 105° |
| 2026-04-29 14:58 | 3.23241 | 103.97061 | 38602 ft | 443 kts | 105° |
| 2026-04-29 14:58 | 3.22403 | 104.00020 | 38719 ft | 442 kts | 105° |
| 2026-04-29 14:59 | 3.21565 | 104.02979 | 38836 ft | 442 kts | 105° |
| 2026-04-29 14:59 | 3.19887 | 104.08904 | 38919 ft | 442 kts | 105° |
| 2026-04-29 15:00 | 3.18212 | 104.14814 | 38920 ft | 442 kts | 105° |
| 2026-04-29 15:00 | 3.16565 | 104.20739 | 38922 ft | 442 kts | 105° |
| 2026-04-29 15:01 | 3.14971 | 104.26640 | 38928 ft | 442 kts | 105° |
| 2026-04-29 15:01 | 3.13361 | 104.32575 | 38926 ft | 442 kts | 105° |
| 2026-04-29 15:02 | 3.11736 | 104.38510 | 38928 ft | 442 kts | 105° |
| 2026-04-29 15:02 | 3.10100 | 104.44442 | 38931 ft | 442 kts | 105° |
| 2026-04-29 15:03 | 3.08463 | 104.50333 | 39362 ft | 429 kts | 105° |
| 2026-04-29 15:03 | 3.07673 | 104.53201 | 39531 ft | 430 kts | 105° |
| 2026-04-29 15:03 | 3.06876 | 104.56115 | 39262 ft | 436 kts | 105° |
| 2026-04-29 15:03 | 3.06076 | 104.59039 | 39003 ft | 437 kts | 105° |
| 2026-04-29 15:04 | 3.05268 | 104.61985 | 38934 ft | 441 kts | 105° |
| 2026-04-29 15:04 | 3.03633 | 104.67926 | 38930 ft | 443 kts | 105° |
| 2026-04-29 15:05 | 3.01996 | 104.73860 | 38931 ft | 442 kts | 105° |
| 2026-04-29 15:05 | 3.00338 | 104.79780 | 38931 ft | 443 kts | 108° |
| 2026-04-29 15:06 | 2.98629 | 104.85680 | 38914 ft | 443 kts | 107° |
| 2026-04-29 15:06 | 2.96972 | 104.91604 | 38923 ft | 442 kts | 106° |
| 2026-04-29 15:07 | 2.95385 | 104.97542 | 38916 ft | 442 kts | 105° |
| 2026-04-29 15:07 | 2.93778 | 105.03468 | 38919 ft | 441 kts | 106° |
| 2026-04-29 15:08 | 2.92154 | 105.09394 | 38915 ft | 441 kts | 105° |
| 2026-04-29 15:08 | 2.90527 | 105.15312 | 38914 ft | 441 kts | 105° |
| 2026-04-29 15:09 | 2.88908 | 105.21191 | 38911 ft | 442 kts | 105° |
| 2026-04-29 15:09 | 2.87274 | 105.27119 | 38919 ft | 442 kts | 105° |
| 2026-04-29 15:10 | 2.85642 | 105.33046 | 38920 ft | 442 kts | 105° |
| 2026-04-29 15:10 | 2.84006 | 105.38981 | 38916 ft | 443 kts | 105° |
| 2026-04-29 15:11 | 2.82369 | 105.44913 | 38916 ft | 443 kts | 105° |
| 2026-04-29 15:11 | 2.80729 | 105.50858 | 38917 ft | 443 kts | 105° |
| 2026-04-29 15:12 | 2.79087 | 105.56804 | 38913 ft | 444 kts | 105° |
| 2026-04-29 15:12 | 2.77440 | 105.62765 | 38920 ft | 444 kts | 105° |
| 2026-04-29 15:13 | 2.75793 | 105.68725 | 38922 ft | 445 kts | 105° |
| 2026-04-29 15:13 | 2.74144 | 105.74694 | 38929 ft | 445 kts | 105° |
| 2026-04-29 15:14 | 2.72492 | 105.80670 | 38928 ft | 446 kts | 105° |
| 2026-04-29 15:14 | 2.70836 | 105.86662 | 38913 ft | 447 kts | 105° |
| 2026-04-29 15:15 | 2.69197 | 105.92594 | 38919 ft | 445 kts | 105° |
| 2026-04-29 15:15 | 2.67547 | 105.98560 | 38921 ft | 445 kts | 105° |
| 2026-04-29 15:16 | 2.65896 | 106.04528 | 38921 ft | 445 kts | 105° |
| 2026-04-29 15:16 | 2.64244 | 106.10502 | 38920 ft | 445 kts | 105° |
| 2026-04-29 15:17 | 2.62595 | 106.16461 | 38913 ft | 444 kts | 105° |
| 2026-04-29 15:17 | 2.60948 | 106.22414 | 38912 ft | 444 kts | 105° |
| 2026-04-29 15:18 | 2.59302 | 106.28359 | 38914 ft | 443 kts | 105° |
| 2026-04-29 15:18 | 2.57658 | 106.34297 | 38906 ft | 443 kts | 105° |
| 2026-04-29 15:19 | 2.56016 | 106.40227 | 38906 ft | 442 kts | 105° |
| 2026-04-29 15:19 | 2.54386 | 106.46160 | 38908 ft | 442 kts | 105° |
| 2026-04-29 15:20 | 2.52767 | 106.52091 | 38909 ft | 442 kts | 105° |
| 2026-04-29 15:20 | 2.51142 | 106.58023 | 38903 ft | 442 kts | 105° |
| 2026-04-29 15:21 | 2.49508 | 106.63951 | 38907 ft | 442 kts | 105° |
| 2026-04-29 15:21 | 2.48150 | 106.68878 | 38905 ft | 442 kts | 105° |
| 2026-04-29 15:22 | 2.46238 | 106.75817 | 38913 ft | 443 kts | 105° |
| 2026-04-29 15:22 | 2.44879 | 106.80750 | 38913 ft | 443 kts | 105° |
| 2026-04-29 15:23 | 2.43242 | 106.86693 | 38918 ft | 443 kts | 105° |
| 2026-04-29 15:23 | 2.41603 | 106.92638 | 38919 ft | 444 kts | 105° |
| 2026-04-29 15:24 | 2.39962 | 106.98591 | 38922 ft | 444 kts | 105° |
| 2026-04-29 15:24 | 2.38319 | 107.04549 | 38926 ft | 444 kts | 105° |
| 2026-04-29 15:25 | 2.36676 | 107.10507 | 38924 ft | 445 kts | 105° |
| 2026-04-29 15:25 | 2.35024 | 107.16465 | 38924 ft | 445 kts | 105° |
| 2026-04-29 15:26 | 2.33369 | 107.22425 | 38925 ft | 445 kts | 105° |
| 2026-04-29 15:26 | 2.31712 | 107.28390 | 38922 ft | 445 kts | 105° |
| 2026-04-29 15:27 | 2.30057 | 107.34355 | 38926 ft | 445 kts | 105° |
| 2026-04-29 15:27 | 2.28402 | 107.40315 | 38926 ft | 445 kts | 105° |
| 2026-04-29 15:28 | 2.26746 | 107.46278 | 38930 ft | 445 kts | 105° |
| 2026-04-29 15:28 | 2.25090 | 107.52239 | 38916 ft | 445 kts | 105° |
| 2026-04-29 15:29 | 2.23436 | 107.58194 | 38914 ft | 444 kts | 105° |
| 2026-04-29 15:30 | 2.20137 | 107.70064 | 38912 ft | 444 kts | 105° |
| 2026-04-29 15:30 | 2.18483 | 107.76016 | 38912 ft | 444 kts | 105° |
| 2026-04-29 15:31 | 2.16830 | 107.81962 | 38913 ft | 444 kts | 105° |
| 2026-04-29 15:31 | 2.15176 | 107.87907 | 38911 ft | 444 kts | 105° |
| 2026-04-29 15:32 | 2.13513 | 107.93859 | 38914 ft | 444 kts | 105° |
| 2026-04-29 15:32 | 2.11855 | 107.99800 | 38913 ft | 444 kts | 106° |
| 2026-04-29 15:33 | 2.10195 | 108.05743 | 38912 ft | 444 kts | 106° |
| 2026-04-29 15:33 | 2.08535 | 108.11688 | 38910 ft | 444 kts | 106° |
| 2026-04-29 15:34 | 2.06876 | 108.17630 | 38913 ft | 444 kts | 106° |
| 2026-04-29 15:34 | 2.05215 | 108.23576 | 38907 ft | 444 kts | 106° |
| 2026-04-29 15:35 | 2.03565 | 108.29482 | 38910 ft | 444 kts | 106° |
| 2026-04-29 15:35 | 2.01892 | 108.35470 | 38911 ft | 444 kts | 106° |
| 2026-04-29 15:36 | 2.00230 | 108.41416 | 38909 ft | 444 kts | 106° |
| 2026-04-29 15:36 | 1.98578 | 108.47329 | 38913 ft | 444 kts | 106° |
| 2026-04-29 15:37 | 1.96925 | 108.53284 | 38908 ft | 445 kts | 105° |
| 2026-04-29 15:37 | 1.95310 | 108.59245 | 38910 ft | 445 kts | 105° |
| 2026-04-29 15:38 | 1.93691 | 108.65212 | 38912 ft | 445 kts | 105° |
| 2026-04-29 15:38 | 1.92068 | 108.71181 | 38915 ft | 445 kts | 105° |
| 2026-04-29 15:39 | 1.90445 | 108.77143 | 38918 ft | 445 kts | 105° |
| 2026-04-29 15:39 | 1.88825 | 108.83092 | 38386 ft | 444 kts | 105° |
| 2026-04-29 15:39 | 1.88011 | 108.86084 | 37560 ft | 448 kts | 105° |
| 2026-04-29 15:40 | 1.87189 | 108.89103 | 36624 ft | 453 kts | 105° |
| 2026-04-29 15:40 | 1.86355 | 108.92166 | 35702 ft | 458 kts | 105° |
| 2026-04-29 15:40 | 1.85515 | 108.95247 | 34892 ft | 460 kts | 105° |
| 2026-04-29 15:40 | 1.84676 | 108.98330 | 34126 ft | 461 kts | 105° |
| 2026-04-29 15:41 | 1.83833 | 109.01424 | 33253 ft | 461 kts | 105° |
| 2026-04-29 15:41 | 1.82990 | 109.04519 | 32350 ft | 463 kts | 105° |
| 2026-04-29 15:41 | 1.82142 | 109.07630 | 31418 ft | 465 kts | 105° |
| 2026-04-29 15:41 | 1.81291 | 109.10754 | 30512 ft | 466 kts | 105° |
| 2026-04-29 15:42 | 1.80439 | 109.13882 | 29788 ft | 464 kts | 105° |
| 2026-04-29 15:42 | 1.79597 | 109.16972 | 29216 ft | 457 kts | 105° |
| 2026-04-29 15:42 | 1.78769 | 109.20010 | 28642 ft | 450 kts | 105° |
| 2026-04-29 15:42 | 1.77953 | 109.23005 | 28064 ft | 444 kts | 105° |
| 2026-04-29 15:43 | 1.77147 | 109.25962 | 27497 ft | 438 kts | 105° |
| 2026-04-29 15:43 | 1.76350 | 109.28886 | 26933 ft | 433 kts | 105° |
| 2026-04-29 15:43 | 1.75563 | 109.31775 | 26357 ft | 429 kts | 105° |
| 2026-04-29 15:43 | 1.74783 | 109.34637 | 25805 ft | 424 kts | 105° |
| 2026-04-29 15:44 | 1.74009 | 109.37476 | 25264 ft | 421 kts | 105° |
| 2026-04-29 15:44 | 1.73242 | 109.40291 | 24698 ft | 418 kts | 105° |
| 2026-04-29 15:44 | 1.72480 | 109.43087 | 24130 ft | 415 kts | 105° |
| 2026-04-29 15:44 | 1.71723 | 109.45862 | 23577 ft | 413 kts | 105° |
| 2026-04-29 15:45 | 1.70972 | 109.48618 | 22951 ft | 410 kts | 105° |
| 2026-04-29 15:45 | 1.70229 | 109.51343 | 22467 ft | 404 kts | 105° |
| 2026-04-29 15:45 | 1.69517 | 109.54040 | 21925 ft | 399 kts | 102° |
| 2026-04-29 15:45 | 1.69079 | 109.56755 | 21377 ft | 394 kts | 96° |
| 2026-04-29 15:46 | 1.68940 | 109.59538 | 20215 ft | 407 kts | 91° |
| 2026-04-29 15:46 | 1.68912 | 109.62351 | 19383 ft | 411 kts | 91° |
| 2026-04-29 15:46 | 1.68874 | 109.65230 | 18798 ft | 407 kts | 91° |
| 2026-04-29 15:46 | 1.68832 | 109.67990 | 18496 ft | 395 kts | 91° |
| 2026-04-29 15:47 | 1.68787 | 109.70687 | 18272 ft | 382 kts | 91° |
| 2026-04-29 15:47 | 1.68742 | 109.73301 | 18024 ft | 371 kts | 91° |
| 2026-04-29 15:47 | 1.68697 | 109.75870 | 17571 ft | 369 kts | 91° |
| 2026-04-29 15:47 | 1.68654 | 109.78431 | 17057 ft | 367 kts | 91° |
| 2026-04-29 15:48 | 1.68610 | 109.80967 | 16552 ft | 363 kts | 91° |
| 2026-04-29 15:48 | 1.68565 | 109.83476 | 16050 ft | 360 kts | 91° |
| 2026-04-29 15:48 | 1.68521 | 109.85972 | 15536 ft | 358 kts | 91° |
| 2026-04-29 15:48 | 1.68478 | 109.88451 | 15047 ft | 355 kts | 91° |
| 2026-04-29 15:49 | 1.68435 | 109.90912 | 14549 ft | 353 kts | 91° |
| 2026-04-29 15:49 | 1.68393 | 109.93359 | 14031 ft | 352 kts | 91° |
| 2026-04-29 15:49 | 1.68351 | 109.95797 | 13537 ft | 349 kts | 91° |
| 2026-04-29 15:49 | 1.68309 | 109.98209 | 13048 ft | 345 kts | 91° |
| 2026-04-29 15:50 | 1.68269 | 110.00594 | 12566 ft | 341 kts | 91° |
| 2026-04-29 15:50 | 1.68228 | 110.02955 | 12088 ft | 338 kts | 91° |
| 2026-04-29 15:50 | 1.68187 | 110.05296 | 11619 ft | 335 kts | 91° |
| 2026-04-29 15:50 | 1.68148 | 110.07613 | 11190 ft | 331 kts | 91° |
| 2026-04-29 15:51 | 1.68109 | 110.09893 | 10776 ft | 327 kts | 91° |
| 2026-04-29 15:51 | 1.68072 | 110.12165 | 10302 ft | 326 kts | 91° |
| 2026-04-29 15:51 | 1.68033 | 110.14381 | 10169 ft | 313 kts | 91° |
| 2026-04-29 15:51 | 1.67995 | 110.16516 | 10061 ft | 300 kts | 91° |
| 2026-04-29 15:52 | 1.67957 | 110.18561 | 9915 ft | 290 kts | 91° |
| 2026-04-29 15:52 | 1.67922 | 110.20557 | 9703 ft | 282 kts | 91° |
| 2026-04-29 15:52 | 1.67889 | 110.22496 | 9426 ft | 277 kts | 91° |
| 2026-04-29 15:52 | 1.67856 | 110.24411 | 9076 ft | 274 kts | 91° |
| 2026-04-29 15:53 | 1.67823 | 110.26311 | 8721 ft | 272 kts | 91° |
| 2026-04-29 15:53 | 1.67791 | 110.28159 | 8390 ft | 267 kts | 91° |
| 2026-04-29 15:53 | 1.67760 | 110.30010 | 8042 ft | 266 kts | 91° |
| 2026-04-29 15:53 | 1.67728 | 110.31855 | 7701 ft | 266 kts | 91° |
| 2026-04-29 15:54 | 1.67695 | 110.33701 | 7364 ft | 265 kts | 91° |
| 2026-04-29 15:54 | 1.67662 | 110.35545 | 7010 ft | 265 kts | 91° |
| 2026-04-29 15:54 | 1.67629 | 110.37402 | 6721 ft | 262 kts | 91° |
| 2026-04-29 15:54 | 1.67589 | 110.39195 | 6343 ft | 263 kts | 91° |
| 2026-04-29 15:55 | 1.67555 | 110.41025 | 5971 ft | 262 kts | 91° |
| 2026-04-29 15:55 | 1.67528 | 110.42842 | 5632 ft | 261 kts | 91° |
| 2026-04-29 15:55 | 1.67500 | 110.44651 | 5328 ft | 258 kts | 91° |
| 2026-04-29 15:55 | 1.67472 | 110.46410 | 5252 ft | 248 kts | 91° |
| 2026-04-29 15:56 | 1.67443 | 110.48100 | 5154 ft | 238 kts | 91° |
| 2026-04-29 15:56 | 1.67379 | 110.49719 | 4991 ft | 231 kts | 100° |
| 2026-04-29 15:56 | 1.66714 | 110.51153 | 4681 ft | 231 kts | 132° |
| 2026-04-29 15:56 | 1.65385 | 110.52034 | 4353 ft | 232 kts | 158° |
| 2026-04-29 15:57 | 1.63879 | 110.52616 | 4077 ft | 231 kts | 159° |
| 2026-04-29 15:57 | 1.62378 | 110.53185 | 3826 ft | 229 kts | 159° |
| 2026-04-29 15:57 | 1.60926 | 110.53743 | 3718 ft | 218 kts | 159° |
| 2026-04-29 15:57 | 1.59547 | 110.54283 | 3629 ft | 208 kts | 158° |
| 2026-04-29 15:58 | 1.58202 | 110.54760 | 3400 ft | 205 kts | 172° |
| 2026-04-29 15:58 | 1.56817 | 110.54570 | 3102 ft | 204 kts | 209° |
| 2026-04-29 15:58 | 1.55825 | 110.53602 | 2802 ft | 202 kts | 245° |
| 2026-04-29 15:58 | 1.55315 | 110.52294 | 2551 ft | 201 kts | 252° |
| 2026-04-29 15:59 | 1.54889 | 110.51028 | 2475 ft | 180 kts | 252° |
| 2026-04-29 15:59 | 1.54496 | 110.49900 | 2339 ft | 163 kts | 251° |
| 2026-04-29 15:59 | 1.54115 | 110.48893 | 2309 ft | 152 kts | 250° |
| 2026-04-29 15:59 | 1.53725 | 110.47895 | 2278 ft | 156 kts | 250° |
| 2026-04-29 16:00 | 1.53329 | 110.46887 | 2095 ft | 153 kts | 249° |
| 2026-04-29 16:00 | 1.52936 | 110.45901 | 1902 ft | 153 kts | 250° |
| 2026-04-29 16:00 | 1.52545 | 110.44912 | 1700 ft | 153 kts | 250° |
| 2026-04-29 16:00 | 1.52157 | 110.43930 | 1500 ft | 152 kts | 250° |
| 2026-04-29 16:01 | 1.51776 | 110.42964 | 1315 ft | 151 kts | 250° |
| 2026-04-29 16:01 | 1.51392 | 110.41992 | 1120 ft | 150 kts | 249° |
| 2026-04-29 16:01 | 1.51006 | 110.41020 | 934 ft | 150 kts | 249° |
| 2026-04-29 16:01 | 1.50623 | 110.40051 | 750 ft | 150 kts | 249° |
| 2026-04-29 16:02 | 1.50240 | 110.39082 | 556 ft | 150 kts | 249° |
| 2026-04-29 16:02 | 1.49857 | 110.38112 | 354 ft | 151 kts | 249° |
| 2026-04-29 16:02 | 1.49474 | 110.37143 | 154 ft | 149 kts | 246° |
| 2026-04-29 16:02 | 1.49115 | 110.36263 | 51 ft | 139 kts | 247° |
| 2026-04-29 16:03 | 1.48826 | 110.35518 | 72 ft | 91 kts | 249° |
| 2026-04-29 16:03 | 1.48649 | 110.35045 | 74 ft | 43 kts | 241° |
| 2026-04-29 16:03 | 1.48616 | 110.34981 | 67 ft | 0 kts | 248° |
| 2026-04-29 16:03 | 1.48612 | 110.34971 | 70 ft | 8 kts | 251° |
| 2026-04-29 16:04 | 1.48599 | 110.34851 | 75 ft | 23 kts | 276° |
| 2026-04-29 16:04 | 1.48625 | 110.34683 | 78 ft | 24 kts | 278° |
| 2026-04-29 16:04 | 1.48692 | 110.34569 | 68 ft | 16 kts | 318° |
| 2026-04-29 16:04 | 1.48686 | 110.34510 | 74 ft | 9 kts | 244° |
| 2026-04-29 16:05 | 1.48657 | 110.34441 | 74 ft | 12 kts | 249° |
| 2026-04-29 16:05 | 1.48624 | 110.34355 | 75 ft | 12 kts | 249° |
| 2026-04-29 16:05 | 1.48617 | 110.34305 | 75 ft | 3 kts | 313° |
| 2026-04-29 16:05 | 1.48626 | 110.34298 | 71 ft | 1 kts | 329° |
| 2026-04-29 16:06 | 1.48632 | 110.34295 | 72 ft | 2 kts | 332° |
| 2026-04-29 16:06 | 1.48655 | 110.34285 | 74 ft | 5 kts | 339° |
| 2026-04-29 16:06 | 1.48679 | 110.34276 | 70 ft | 0 kts | 338° |